Wilmington, North Carolina
Current Conditions -  °F | °C
As of 2:53 PM on Wednesday 17 Dec 2014 (Local Time) from KILM Reporting Station
Clear Clear  
Wind Chill: 61°   Ceiling: Unl
Heat Index: 61°   Visibility: 10mi
Dew Point: 39°   Wind: 9mph
Humidity: 44%   Direction: 300°WNW
Pressure: 30.04"   Gusts: NA
Location:  34.24°N, 77.94°W
Report Text: KILM 171953Z 30008KT 10SM CLR 16/04 A3004 RMK AO2 SLP170 T01610039
Loading
Personal Weather Stations






























Interactive Weather Map New forecast layout! Learn more

10-Day Weather Forecast

Advertisements
Track Severe Weather on mobile